createdAt,value
2023-05-03T00:02:20.440Z,10.06
2023-05-03T00:04:54.931Z,10.00
2023-05-03T00:07:26.929Z,9.98
2023-05-03T00:10:01.263Z,9.91
2023-05-03T00:12:34.866Z,9.92
2023-05-03T00:15:12.738Z,9.92
2023-05-03T00:17:45.875Z,9.82
2023-05-03T00:20:19.718Z,9.71
2023-05-03T00:22:54.678Z,9.64
2023-05-03T00:25:27.195Z,9.60
2023-05-03T00:28:00.958Z,9.59
2023-05-03T00:30:32.550Z,9.56
2023-05-03T00:33:05.373Z,9.52
2023-05-03T00:35:35.997Z,9.50
2023-05-03T00:38:08.780Z,9.49
2023-05-03T00:40:43.591Z,9.39
2023-05-03T00:43:18.738Z,9.26
2023-05-03T00:45:59.404Z,9.15
2023-05-03T00:48:41.703Z,9.03
2023-05-03T00:51:18.898Z,8.96
2023-05-03T00:53:52.711Z,8.97
2023-05-03T00:56:26.574Z,8.94
2023-05-03T00:58:59.899Z,8.94
2023-05-03T01:01:32.284Z,8.94
2023-05-03T01:04:09.113Z,8.90
2023-05-03T01:06:51.391Z,8.86
2023-05-03T01:09:35.238Z,8.83
2023-05-03T01:12:19.030Z,8.77
2023-05-03T01:15:01.241Z,8.71
2023-05-03T01:17:43.401Z,8.65
2023-05-03T01:20:25.786Z,8.58
2023-05-03T01:23:23.552Z,8.50
2023-05-03T01:25:57.826Z,8.41
2023-05-03T01:28:30.570Z,8.36
2023-05-03T01:31:03.849Z,8.31
2023-05-03T01:33:41.182Z,8.27
2023-05-03T01:36:14.342Z,8.20
2023-05-03T01:38:48.865Z,8.15
2023-05-03T01:41:23.990Z,8.10
2023-05-03T01:43:59.087Z,8.06
2023-05-03T01:46:31.747Z,7.96
2023-05-03T01:49:04.085Z,7.94
2023-05-03T01:51:34.886Z,7.90
2023-05-03T01:54:09.731Z,7.82
2023-05-03T01:56:41.347Z,7.76
2023-05-03T01:59:14.342Z,7.68
2023-05-03T02:01:47.519Z,7.68
2023-05-03T02:04:20.530Z,7.68
2023-05-03T02:06:52.097Z,7.66
2023-05-03T02:09:25.972Z,7.63
2023-05-03T02:11:59.814Z,7.56
2023-05-03T02:14:33.626Z,7.49
2023-05-03T02:17:08.681Z,7.44
2023-05-03T02:19:41.516Z,7.39
2023-05-03T02:22:14.725Z,7.33
2023-05-03T02:24:55.078Z,7.26
2023-05-03T02:27:29.710Z,7.25
2023-05-03T02:30:00.364Z,7.23
2023-05-03T02:32:33.984Z,7.20
2023-05-03T02:35:12.682Z,7.16
2023-05-03T02:37:45.483Z,7.09
2023-05-03T02:40:18.722Z,7.05
2023-05-03T02:42:51.422Z,7.04
2023-05-03T02:45:24.154Z,6.99
2023-05-03T02:47:54.483Z,6.95
2023-05-03T02:50:27.625Z,6.90
2023-05-03T02:52:59.556Z,6.87
2023-05-03T02:55:32.108Z,6.84
2023-05-03T02:58:04.220Z,6.81
2023-05-03T03:00:37.405Z,6.78
2023-05-03T03:03:13.416Z,6.75
2023-05-03T03:05:44.984Z,6.71
2023-05-03T03:08:19.363Z,6.66
2023-05-03T03:10:51.907Z,6.64
2023-05-03T03:13:26.533Z,6.62
2023-05-03T03:16:04.208Z,6.56
2023-05-03T03:18:35.282Z,6.52
2023-05-03T03:21:05.780Z,6.52
2023-05-03T03:23:40.800Z,6.51
2023-05-03T03:26:12.282Z,6.50
2023-05-03T03:28:48.528Z,6.45
2023-05-03T03:31:19.318Z,6.40
2023-05-03T03:33:51.394Z,6.36
2023-05-03T03:36:23.921Z,6.34
2023-05-03T03:38:57.996Z,6.31
2023-05-03T03:41:29.695Z,6.32
2023-05-03T03:44:04.336Z,6.33
2023-05-03T03:46:37.764Z,6.31
2023-05-03T03:49:08.437Z,6.30
2023-05-03T03:51:41.290Z,6.30
2023-05-03T03:54:16.969Z,6.31
2023-05-03T03:56:50.674Z,6.32
2023-05-03T03:59:22.984Z,6.35
2023-05-03T04:01:56.350Z,6.39
2023-05-03T04:04:32.034Z,6.43
2023-05-03T04:07:05.902Z,6.47
2023-05-03T04:09:37.770Z,6.52
2023-05-03T04:12:11.781Z,6.56
2023-05-03T04:14:44.144Z,6.63
2023-05-03T04:17:16.911Z,6.70
2023-05-03T04:19:48.680Z,6.75
2023-05-03T04:22:20.874Z,6.81
2023-05-03T04:24:54.801Z,6.91
2023-05-03T04:27:26.517Z,6.98
2023-05-03T04:30:01.834Z,7.05
2023-05-03T04:32:36.968Z,7.12
2023-05-03T04:35:15.421Z,7.17
2023-05-03T04:37:53.833Z,7.20
2023-05-03T04:40:27.152Z,7.23
2023-05-03T04:43:08.939Z,7.27
2023-05-03T04:45:42.658Z,7.32
2023-05-03T04:48:18.639Z,7.30
2023-05-03T04:50:52.415Z,7.32
2023-05-03T04:53:24.935Z,7.35
2023-05-03T04:56:06.935Z,7.38
2023-05-03T04:58:41.596Z,7.35
2023-05-03T05:01:14.787Z,7.33
2023-05-03T05:03:57.113Z,7.31
2023-05-03T05:06:34.583Z,7.36
2023-05-03T05:09:22.124Z,7.36
2023-05-03T05:11:57.261Z,7.33
2023-05-03T05:14:34.974Z,7.38
2023-05-03T05:17:08.240Z,7.43
2023-05-03T05:19:40.819Z,7.45
2023-05-03T05:22:16.894Z,7.51
2023-05-03T05:24:56.122Z,7.56
2023-05-03T05:27:27.728Z,7.60
2023-05-03T05:29:59.667Z,7.68
2023-05-03T05:32:32.689Z,7.77
2023-05-03T05:35:08.827Z,7.82
2023-05-03T05:37:41.832Z,7.83
2023-05-03T05:40:18.048Z,7.89
2023-05-03T05:42:55.669Z,7.95
2023-05-03T05:45:29.679Z,8.03
2023-05-03T05:48:00.759Z,8.11
2023-05-03T05:50:33.092Z,8.27
2023-05-03T05:53:09.914Z,8.46
2023-05-03T05:55:46.141Z,8.62
2023-05-03T05:58:17.951Z,8.78
2023-05-03T06:00:56.645Z,8.85
2023-05-03T06:03:29.676Z,8.91
2023-05-03T06:06:01.665Z,9.00
2023-05-03T06:08:33.720Z,9.05
2023-05-03T06:11:08.021Z,9.08
2023-05-03T06:13:41.956Z,9.18
2023-05-03T06:16:21.669Z,9.25
2023-05-03T06:18:55.337Z,9.30
2023-05-03T06:21:27.760Z,9.31
2023-05-03T06:23:58.955Z,9.34
2023-05-03T06:26:32.115Z,9.39
2023-05-03T06:29:05.011Z,9.42
2023-05-03T06:31:37.739Z,9.46
2023-05-03T06:34:13.693Z,9.51
2023-05-03T06:36:48.792Z,9.55
2023-05-03T06:39:21.132Z,9.62
2023-05-03T06:41:53.256Z,9.68
2023-05-03T06:44:27.044Z,9.72
2023-05-03T06:47:00.942Z,9.76
2023-05-03T06:49:32.209Z,9.79
2023-05-03T06:52:09.503Z,9.87
2023-05-03T06:54:42.755Z,9.93
2023-05-03T06:57:14.898Z,10.01
2023-05-03T06:59:47.135Z,10.09
2023-05-03T07:02:18.561Z,10.11
2023-05-03T07:04:49.812Z,10.13
2023-05-03T07:07:30.116Z,10.18
2023-05-03T07:10:03.148Z,10.26
2023-05-03T07:12:34.023Z,10.34
2023-05-03T07:15:06.537Z,10.38
2023-05-03T07:17:38.950Z,10.44
2023-05-03T07:20:13.968Z,10.50
2023-05-03T07:22:47.702Z,10.55
2023-05-03T07:25:20.772Z,10.61
2023-05-03T07:27:54.074Z,10.62
2023-05-03T07:30:26.880Z,10.68
2023-05-03T07:33:00.966Z,10.74
2023-05-03T07:35:33.057Z,10.79
2023-05-03T07:38:07.535Z,10.85
2023-05-03T07:40:41.706Z,10.91
2023-05-03T07:43:16.466Z,10.90
2023-05-03T07:45:50.086Z,10.94
2023-05-03T07:48:23.427Z,10.97
2023-05-03T07:50:55.985Z,10.95
2023-05-03T07:53:27.772Z,10.93
2023-05-03T07:56:00.144Z,11.00
2023-05-03T07:58:40.463Z,11.10
2023-05-03T08:01:14.897Z,11.23
2023-05-03T08:03:51.346Z,11.31
2023-05-03T08:06:24.516Z,11.33
2023-05-03T08:08:59.984Z,11.34
2023-05-03T08:11:32.769Z,11.37
2023-05-03T08:14:05.758Z,11.44
2023-05-03T08:16:37.510Z,11.56
2023-05-03T08:19:09.110Z,11.66
2023-05-03T08:21:45.003Z,11.67
2023-05-03T08:24:16.375Z,11.65
2023-05-03T08:26:49.262Z,11.63
2023-05-03T08:29:22.080Z,11.62
2023-05-03T08:31:56.551Z,11.65
2023-05-03T08:34:33.340Z,11.75
2023-05-03T08:37:05.934Z,11.80
2023-05-03T08:39:37.186Z,11.89
2023-05-03T08:42:12.135Z,11.95
2023-05-03T08:44:51.077Z,12.00
2023-05-03T08:47:24.309Z,12.03
2023-05-03T08:49:58.763Z,12.11
2023-05-03T08:52:30.000Z,12.18
2023-05-03T08:55:02.815Z,12.25
2023-05-03T08:57:36.800Z,12.36
2023-05-03T09:00:15.921Z,12.38
2023-05-03T09:02:51.117Z,12.44
2023-05-03T09:05:40.940Z,12.46
2023-05-03T09:08:16.909Z,12.50
2023-05-03T09:10:49.741Z,12.53
2023-05-03T09:13:20.680Z,12.51
2023-05-03T09:15:57.886Z,12.58
2023-05-03T09:18:31.292Z,12.71
2023-05-03T09:21:05.564Z,12.76
2023-05-03T09:23:37.107Z,12.79
2023-05-03T09:26:09.590Z,12.92
2023-05-03T09:28:46.163Z,12.94
2023-05-03T09:31:18.938Z,12.95
2023-05-03T09:33:50.571Z,13.02
2023-05-03T09:36:23.285Z,13.02
2023-05-03T09:38:59.060Z,12.98
2023-05-03T09:41:34.372Z,13.08
2023-05-03T09:44:09.049Z,13.19
2023-05-03T09:46:40.405Z,13.35
2023-05-03T09:49:15.128Z,13.46
2023-05-03T09:51:49.900Z,13.43
2023-05-03T09:54:25.653Z,13.48
2023-05-03T09:57:01.362Z,13.42
2023-05-03T09:59:36.022Z,13.49
2023-05-03T10:02:08.763Z,13.56
2023-05-03T10:04:48.099Z,13.57
2023-05-03T10:07:23.972Z,13.59
2023-05-03T10:09:59.077Z,13.54
2023-05-03T10:12:36.410Z,13.42
2023-05-03T10:15:14.411Z,13.40
2023-05-03T10:17:52.746Z,13.46
2023-05-03T10:20:31.412Z,13.62
2023-05-03T10:23:29.678Z,13.73
2023-05-03T10:26:25.361Z,13.77
2023-05-03T10:28:58.034Z,13.81
2023-05-03T10:31:50.956Z,13.72
2023-05-03T10:34:25.167Z,13.65
2023-05-03T10:36:58.952Z,13.65
2023-05-03T10:39:31.600Z,13.75
2023-05-03T10:42:09.682Z,13.92
2023-05-03T10:44:54.422Z,14.06
2023-05-03T10:47:30.297Z,14.02
2023-05-03T10:50:34.192Z,13.91
2023-05-03T10:53:09.513Z,13.71
2023-05-03T10:56:03.090Z,13.68
2023-05-03T10:58:45.228Z,13.68
2023-05-03T11:01:19.782Z,13.77
2023-05-03T11:03:56.864Z,13.88
2023-05-03T11:06:34.367Z,14.00
2023-05-03T11:09:08.959Z,14.15
2023-05-03T11:11:41.363Z,14.27
2023-05-03T11:14:14.710Z,14.37
2023-05-03T11:16:51.953Z,14.50
2023-05-03T11:19:26.271Z,14.56
2023-05-03T11:22:02.846Z,14.56
2023-05-03T11:24:34.071Z,14.47
2023-05-03T11:27:08.710Z,14.36
2023-05-03T11:29:42.006Z,14.26
2023-05-03T11:32:16.827Z,14.32
2023-05-03T11:34:58.664Z,14.43
2023-05-03T11:37:30.037Z,14.58
2023-05-03T11:40:05.447Z,14.68
2023-05-03T11:42:55.051Z,14.71
2023-05-03T11:45:31.612Z,14.63
2023-05-03T11:48:02.492Z,14.63
2023-05-03T11:50:47.890Z,14.64
2023-05-03T11:53:23.596Z,14.53
2023-05-03T11:56:03.690Z,14.46
2023-05-03T11:58:37.136Z,14.42
2023-05-03T12:01:10.209Z,14.42
2023-05-03T12:03:52.251Z,14.44
2023-05-03T12:06:28.069Z,14.49
2023-05-03T12:09:03.723Z,14.66
2023-05-03T12:11:48.047Z,14.82
2023-05-03T12:14:22.346Z,14.95
2023-05-03T12:16:56.896Z,15.01
2023-05-03T12:19:33.666Z,15.07
2023-05-03T12:22:25.825Z,15.19
2023-05-03T12:24:59.644Z,15.25
2023-05-03T12:27:36.906Z,15.27
2023-05-03T12:30:13.322Z,15.37
2023-05-03T12:32:45.540Z,15.53
2023-05-03T12:35:21.567Z,15.67
2023-05-03T12:37:55.953Z,15.71
2023-05-03T12:40:34.114Z,15.70
2023-05-03T12:43:10.459Z,15.69
2023-05-03T12:45:46.893Z,15.69
2023-05-03T12:48:24.554Z,15.59
2023-05-03T12:51:17.108Z,15.37
2023-05-03T12:53:54.824Z,15.16
2023-05-03T12:56:32.171Z,15.03
2023-05-03T12:59:39.532Z,14.99
2023-05-03T13:04:56.875Z,14.90
2023-05-03T13:07:29.202Z,14.94
2023-05-03T13:12:54.093Z,14.91
2023-05-03T13:15:29.068Z,14.96
2023-05-03T13:18:01.270Z,15.03
2023-05-03T13:20:33.120Z,15.11
2023-05-03T13:23:05.923Z,15.08
2023-05-03T13:25:39.714Z,15.06
2023-05-03T13:28:10.409Z,15.04
2023-05-03T13:30:42.156Z,14.97
2023-05-03T13:33:12.995Z,14.95
2023-05-03T13:35:48.157Z,14.84
2023-05-03T13:38:22.049Z,14.72
2023-05-03T13:40:56.604Z,14.71
2023-05-03T13:43:30.171Z,14.69
2023-05-03T13:46:05.942Z,14.57
2023-05-03T13:48:37.199Z,14.50
2023-05-03T13:51:10.326Z,14.51
2023-05-03T13:53:41.535Z,14.53
2023-05-03T13:56:12.439Z,14.62
2023-05-03T13:58:44.886Z,14.70
2023-05-03T14:01:17.411Z,14.86
2023-05-03T14:03:50.336Z,14.99
2023-05-03T14:06:24.390Z,15.00
2023-05-03T14:08:58.038Z,15.02
2023-05-03T14:11:30.292Z,15.04
2023-05-03T14:14:04.448Z,15.07
2023-05-03T14:16:41.512Z,15.14
2023-05-03T14:19:17.463Z,15.20
2023-05-03T14:21:51.289Z,15.24
2023-05-03T14:24:24.369Z,15.17
2023-05-03T14:26:53.917Z,15.14
2023-05-03T14:29:25.147Z,15.16
2023-05-03T14:31:59.059Z,15.19
2023-05-03T14:34:29.679Z,15.20
2023-05-03T14:37:00.949Z,15.28
2023-05-03T14:39:34.139Z,15.34
2023-05-03T14:42:06.785Z,15.43
2023-05-03T14:44:37.732Z,15.52
2023-05-03T14:47:10.008Z,15.67
2023-05-03T14:49:43.553Z,15.81
2023-05-03T14:52:17.136Z,15.78
2023-05-03T14:54:50.338Z,15.77
2023-05-03T14:57:24.740Z,15.78
2023-05-03T15:00:02.655Z,15.80
2023-05-03T15:02:36.229Z,15.83
2023-05-03T15:05:10.496Z,15.81
2023-05-03T15:07:46.910Z,15.83
2023-05-03T15:10:18.220Z,15.83
2023-05-03T15:12:51.349Z,15.80
2023-05-03T15:15:24.918Z,15.79
2023-05-03T15:18:00.527Z,15.68
2023-05-03T15:20:34.086Z,15.58
2023-05-03T15:23:08.223Z,15.48
2023-05-03T15:25:40.779Z,15.44
2023-05-03T15:28:13.840Z,15.37
2023-05-03T15:30:47.614Z,15.29
2023-05-03T15:33:23.823Z,15.21
2023-05-03T15:35:58.586Z,15.17
2023-05-03T15:38:30.789Z,15.09
2023-05-03T15:41:03.112Z,15.02
2023-05-03T15:43:35.767Z,14.94
2023-05-03T15:46:09.716Z,14.86
2023-05-03T15:48:43.599Z,14.84
2023-05-03T15:51:20.192Z,14.79
2023-05-03T15:53:54.102Z,14.80
2023-05-03T15:56:27.650Z,14.81
2023-05-03T15:59:01.585Z,14.84
2023-05-03T16:01:37.254Z,14.92
2023-05-03T16:04:09.430Z,15.01
2023-05-03T16:06:42.068Z,15.09
2023-05-03T16:09:16.166Z,15.23
2023-05-03T16:11:48.376Z,15.35
2023-05-03T16:14:21.334Z,15.42
2023-05-03T16:16:55.814Z,15.36
2023-05-03T16:19:30.350Z,15.48
2023-05-03T16:22:04.130Z,15.57
2023-05-03T16:24:40.860Z,15.54
2023-05-03T16:27:16.890Z,15.63
2023-05-03T16:29:49.671Z,15.64
2023-05-03T16:32:24.799Z,15.74
2023-05-03T16:34:59.696Z,15.85
2023-05-03T16:37:33.705Z,15.84
2023-05-03T16:40:11.891Z,15.80
2023-05-03T16:42:44.957Z,15.82
2023-05-03T16:45:23.635Z,15.80
2023-05-03T16:48:02.867Z,15.69
2023-05-03T16:50:38.210Z,15.56
2023-05-03T16:53:16.432Z,15.48
2023-05-03T16:55:48.777Z,15.53
2023-05-03T16:58:23.632Z,15.47
2023-05-03T17:01:05.428Z,15.43
2023-05-03T17:03:45.964Z,15.40
2023-05-03T17:06:26.005Z,15.42
2023-05-03T17:09:02.131Z,15.37
2023-05-03T17:11:38.749Z,15.26
2023-05-03T17:14:10.700Z,15.06
2023-05-03T17:16:44.927Z,14.97
2023-05-03T17:19:19.208Z,14.88
2023-05-03T17:21:51.765Z,14.84
2023-05-03T17:24:24.659Z,14.81
2023-05-03T17:26:58.796Z,14.72
2023-05-03T17:29:31.970Z,14.66
2023-05-03T17:32:07.992Z,14.61
2023-05-03T17:34:48.226Z,14.56
2023-05-03T17:37:23.531Z,14.54
2023-05-03T17:39:59.017Z,14.49
2023-05-03T17:42:33.552Z,14.43
2023-05-03T17:45:10.409Z,14.37
2023-05-03T17:47:42.208Z,14.20
2023-05-03T17:50:17.980Z,14.12
2023-05-03T17:52:51.625Z,14.08
2023-05-03T17:55:26.497Z,14.06
2023-05-03T17:58:00.166Z,14.00
2023-05-03T18:00:32.948Z,13.90
2023-05-03T18:03:08.330Z,13.84
2023-05-03T18:05:40.774Z,13.80
2023-05-03T18:08:13.375Z,13.76
2023-05-03T18:10:46.546Z,13.71
2023-05-03T18:13:18.130Z,13.66
2023-05-03T18:15:51.025Z,13.58
2023-05-03T18:18:24.196Z,13.53
2023-05-03T18:21:02.599Z,13.47
2023-05-03T18:23:36.037Z,13.39
2023-05-03T18:26:08.936Z,13.31
2023-05-03T18:28:42.655Z,13.23
2023-05-03T18:31:23.706Z,13.15
2023-05-03T18:33:55.180Z,13.05
2023-05-03T18:36:28.527Z,12.96
2023-05-03T18:39:01.325Z,12.88
2023-05-03T18:41:33.300Z,12.79
2023-05-03T18:44:07.901Z,12.72
2023-05-03T18:46:40.312Z,12.64
2023-05-03T18:49:12.300Z,12.58
2023-05-03T18:51:47.642Z,12.49
2023-05-03T18:54:19.854Z,12.40
2023-05-03T18:56:52.714Z,12.32
2023-05-03T18:59:25.299Z,12.22
2023-05-03T19:02:00.615Z,12.14
2023-05-03T19:04:33.744Z,12.06
2023-05-03T19:07:06.573Z,12.00
2023-05-03T19:09:39.992Z,11.93
2023-05-03T19:12:11.500Z,11.87
2023-05-03T19:14:44.904Z,11.79
2023-05-03T19:17:17.564Z,11.72
2023-05-03T19:19:47.950Z,11.63
2023-05-03T19:22:24.322Z,11.57
2023-05-03T19:24:59.132Z,11.48
2023-05-03T19:27:40.825Z,11.40
2023-05-03T19:30:15.235Z,11.28
2023-05-03T19:32:50.510Z,11.22
2023-05-03T19:35:22.750Z,11.16
2023-05-03T19:37:55.844Z,11.08
2023-05-03T19:40:29.994Z,11.03
2023-05-03T19:43:03.860Z,10.95
2023-05-03T19:45:42.550Z,10.89
2023-05-03T19:48:16.953Z,10.82
2023-05-03T19:50:47.084Z,10.76
2023-05-03T19:53:19.347Z,10.70
2023-05-03T19:55:58.989Z,10.65
2023-05-03T19:58:32.216Z,10.58
2023-05-03T20:01:06.702Z,10.52
2023-05-03T20:03:39.689Z,10.48
2023-05-03T20:06:11.118Z,10.43
2023-05-03T20:08:42.823Z,10.38
2023-05-03T20:11:16.185Z,10.32
2023-05-03T20:13:49.309Z,10.28
2023-05-03T20:16:33.781Z,10.23
2023-05-03T20:19:07.289Z,10.17
2023-05-03T20:21:39.803Z,10.13
2023-05-03T20:24:12.990Z,10.07
2023-05-03T20:26:46.719Z,10.01
2023-05-03T20:29:18.633Z,9.94
2023-05-03T20:31:54.225Z,9.88
2023-05-03T20:34:26.265Z,9.82
2023-05-03T20:37:00.191Z,9.76
2023-05-03T20:39:34.735Z,9.70
2023-05-03T20:42:08.794Z,9.66
2023-05-03T20:44:40.852Z,9.59
2023-05-03T20:47:13.383Z,9.55
2023-05-03T20:49:45.221Z,9.48
2023-05-03T20:52:19.109Z,9.42
2023-05-03T20:54:51.120Z,9.33
2023-05-03T20:57:24.489Z,9.27
2023-05-03T20:59:57.791Z,9.20
2023-05-03T21:02:31.118Z,9.10
2023-05-03T21:05:03.677Z,9.02
2023-05-03T21:07:35.793Z,9.00
2023-05-03T21:10:11.702Z,8.97
2023-05-03T21:12:44.619Z,8.94
2023-05-03T21:15:17.721Z,8.92
2023-05-03T21:17:58.271Z,8.87
2023-05-03T21:20:31.688Z,8.81
2023-05-03T21:23:09.877Z,8.75
2023-05-03T21:25:44.088Z,8.66
2023-05-03T21:28:18.815Z,8.61
2023-05-03T21:30:50.080Z,8.55
2023-05-03T21:33:26.211Z,8.53
2023-05-03T21:35:58.151Z,8.50
2023-05-03T21:38:31.596Z,8.49
2023-05-03T21:41:08.445Z,8.47
2023-05-03T21:43:45.562Z,8.43
2023-05-03T21:46:17.772Z,8.36
2023-05-03T21:48:48.182Z,8.30
2023-05-03T21:51:22.706Z,8.31
2023-05-03T21:53:55.068Z,8.30
2023-05-03T21:56:28.464Z,8.28
2023-05-03T21:59:00.050Z,8.23
2023-05-03T22:01:40.600Z,8.18
2023-05-03T22:04:17.423Z,8.16
2023-05-03T22:06:51.484Z,8.14
2023-05-03T22:09:24.874Z,8.12
2023-05-03T22:11:59.385Z,7.94
2023-05-03T22:14:31.549Z,7.80
2023-05-03T22:17:04.833Z,7.80
2023-05-03T22:19:41.642Z,7.75
2023-05-03T22:22:18.060Z,7.73
2023-05-03T22:24:50.981Z,7.72
2023-05-03T22:27:25.122Z,7.67
2023-05-03T22:29:57.675Z,7.63
2023-05-03T22:32:35.216Z,7.57
2023-05-03T22:35:11.085Z,7.52
2023-05-03T22:37:44.367Z,7.50
2023-05-03T22:40:17.972Z,7.43
2023-05-03T22:42:50.671Z,7.42
2023-05-03T22:45:23.677Z,7.37
2023-05-03T22:47:56.904Z,7.30
2023-05-03T22:50:29.676Z,7.27
2023-05-03T22:53:02.801Z,7.24
2023-05-03T22:55:35.519Z,7.22
2023-05-03T22:58:07.087Z,7.21
2023-05-03T23:00:40.490Z,7.20
2023-05-03T23:03:15.833Z,7.15
2023-05-03T23:05:54.769Z,7.13
2023-05-03T23:08:29.130Z,7.10
2023-05-03T23:11:02.723Z,7.09
2023-05-03T23:13:35.076Z,7.05
2023-05-03T23:16:10.618Z,7.02
2023-05-03T23:18:44.010Z,7.02
2023-05-03T23:21:18.832Z,7.00
2023-05-03T23:23:55.103Z,6.96
2023-05-03T23:26:29.558Z,6.96
2023-05-03T23:29:03.869Z,6.95
2023-05-03T23:31:36.910Z,6.92
2023-05-03T23:34:09.691Z,6.94
2023-05-03T23:36:43.405Z,6.94
2023-05-03T23:39:14.453Z,6.94
2023-05-03T23:41:48.298Z,6.93
2023-05-03T23:44:21.380Z,6.92
2023-05-03T23:46:58.486Z,6.91
2023-05-03T23:49:30.634Z,6.90
2023-05-03T23:52:04.131Z,6.91
2023-05-03T23:54:40.972Z,6.90
2023-05-03T23:57:11.903Z,6.90
2023-05-03T23:59:44.996Z,6.90
